Latest Weather Observations for Coondewanna

IDW60801

Issued at 12:32 am WST Thursday 5 March 2015 (issued every 30 minutes, with the page automatically refreshed every 10 minutes)

About weather observations | Map of weather stations | Latest weather observations for WA | Other Formats
Station Details ID: 505051 Name: COONDEWANNA Lat: -22.96 Lon: 118.81 Height: 697.63 m
Data from the previous 72 hours. | See also: Recent months for locations in Western Australia
Date/Time
WST
Temp
°C
App
Temp
°C
Dew
Point
Rel
Hum
%
Delta-T
°C
Wind Press
QNH
hPa
Press
MSL
hPa
Rain
since 9 am
mm
Dir
 
Spd
km/h
Gust
km/h
Spd
kts
Gust
kts
05/12:30am 20.9 18.9 17.5 81 2.2 SE 24 30 13 16 1016.5 1011.1 -
05/12:00am 21.1 19.9 18.3 84 1.8 SE 22 30 12 16 1017.1 1011.7 7.8
 
Date/Time
WST
Temp
°C
App
Temp
°C
Dew
Point
Rel
Hum
%
Delta-T
°C
Wind Press
QNH
hPa
Press
MSL
hPa
Rain
since 9 am
mm
Dir
 
Spd
km/h
Gust
km/h
Spd
kts
Gust
kts
04/11:30pm 21.3 20.2 18.7 85 1.7 SE 22 30 12 16 1017.7 1012.3 7.8
04/11:12pm 21.4 20.8 18.8 85 1.7 SE 20 30 11 16 1017.7 1012.3 7.8
04/11:00pm 21.3 20.9 18.9 86 1.6 SE 19 26 10 14 1017.9 1012.5 7.8
04/10:30pm 21.6 21.0 18.8 84 1.8 SE 20 26 11 14 1017.7 1012.3 7.6
04/10:16pm 21.7 20.7 18.9 84 1.8 SE 22 33 12 18 1017.7 1012.3 7.6
04/10:00pm 21.6 21.2 19.0 85 1.7 SE 19 26 10 14 1017.5 1012.1 7.6
04/09:30pm 21.1 20.6 19.2 89 1.2 SE 20 30 11 16 1017.4 1012.0 7.6
04/09:00pm 21.5 21.5 18.9 85 1.7 SE 17 24 9 13 1017.7 1012.3 5.2
04/08:30pm 22.5 21.3 18.3 77 2.7 SSE 22 32 12 17 1017.5 1012.1 4.0
04/08:00pm 22.7 22.2 18.7 78 2.6 SSE 19 28 10 15 1017.0 1011.6 4.0
04/07:30pm 22.6 23.1 18.4 77 2.7 SSE 13 20 7 11 1016.7 1011.2 3.8
04/07:00pm 22.3 22.9 18.7 80 2.3 S 13 17 7 9 1016.2 1010.8 3.6
04/06:30pm 22.2 22.9 18.8 81 2.2 S 13 20 7 11 1015.9 1010.5 3.6
04/06:00pm 22.5 22.3 19.3 82 2.1 SSE 19 26 10 14 1015.2 1009.7 3.4
04/05:30pm 22.6 23.3 19.6 83 2.0 SSE 15 19 8 10 1015.2 1009.7 3.4
04/05:00pm 22.9 23.4 19.3 80 2.4 SSE 15 26 8 14 1015.2 1009.7 3.4
04/04:30pm 22.9 24.2 20.1 84 1.9 S 13 19 7 10 1015.3 1009.8 3.4
04/04:00pm 23.3 24.6 20.2 83 2.1 SE 13 17 7 9 1015.6 1010.2 3.2
04/03:30pm 23.1 24.6 19.7 81 2.2 SSE 11 17 6 9 1015.4 1009.9 3.2
04/03:07pm 23.2 24.5 20.2 83 2.0 SE 13 17 7 9 1015.5 1010.0 3.0
04/03:00pm 23.0 23.9 20.1 84 1.9 ESE 15 19 8 10 1015.4 1009.9 3.0
04/02:30pm 23.7 24.0 20.4 82 2.2 ESE 19 24 10 13 1015.2 1009.7 2.4
04/02:00pm 23.4 25.2 20.3 83 2.1 SE 11 22 6 12 1015.4 1009.9 2.4
04/01:30pm 22.5 23.8 20.8 90 1.1 SE 15 19 8 10 1015.6 1010.2 2.4
04/01:00pm 21.9 21.9 19.8 88 1.4 E 19 24 10 13 1016.9 1011.5 1.6
04/12:30pm 22.8 21.8 19.6 82 2.1 ESE 24 30 13 16 1017.1 1011.7 1.4
04/12:00pm 22.6 21.2 19.6 83 2.0 ESE 26 30 14 16 1016.8 1011.3 1.4
04/11:43am 22.5 21.6 19.9 85 1.7 ESE 24 28 13 15 1016.9 1011.5 1.4
04/11:30am 22.1 21.6 20.0 88 1.4 ESE 22 30 12 16 1016.8 1011.3 1.4
04/11:13am 22.3 23.6 20.2 88 1.4 SE 13 22 7 12 1017.0 1011.6 1.4
04/11:05am 22.1 23.9 19.6 86 1.6 SSE 9 15 5 8 1016.9 1011.5 1.4
04/11:00am 21.9 24.1 19.5 86 1.6 SSE 7 11 4 6 1016.9 1011.5 1.4
04/10:35am 21.6 23.6 19.9 90 1.1 S 9 11 5 6 1017.1 1011.7 1.4
04/10:30am 21.4 23.6 19.1 87 1.5 S 6 11 3 6 1017.2 1011.8 1.4
04/10:00am 21.2 22.0 19.1 88 1.4 SE 13 19 7 10 1017.6 1012.2 1.0
04/09:30am 21.0 20.9 19.5 91 1.0 ESE 19 28 10 15 1018.1 1012.7 0.6
04/09:00am 21.0 19.7 19.1 89 1.2 ESE 24 32 13 17 1018.1 1012.7 59.4
04/08:30am 21.4 21.3 19.5 89 1.2 ESE 19 20 10 11 1017.6 1012.2 59.2
04/08:00am 21.0 20.0 18.9 88 1.4 SE 22 30 12 16 1017.5 1012.1 59.2
04/07:30am 21.5 22.1 19.4 88 1.4 ESE 15 20 8 11 1017.4 1012.0 59.2
04/07:03am 21.2 22.1 19.3 89 1.2 SSE 13 17 7 9 1016.9 1011.5 59.2
04/07:00am 21.3 22.7 19.6 90 1.1 SSE 11 15 6 8 1016.9 1011.5 59.2
04/06:46am 21.2 23.4 19.5 90 1.1 SE 7 11 4 6 1016.4 1011.0 59.2
04/06:31am 21.2 22.9 19.3 89 1.2 SE 9 11 5 6 1016.1 1010.7 59.2
04/06:30am 21.2 22.9 19.3 89 1.2 SE 9 13 5 7 1016.1 1010.7 59.2
04/06:00am 21.3 22.4 19.6 90 1.1 SE 13 15 7 8 1016.0 1010.6 59.2
04/05:57am 21.3 22.7 19.6 90 1.1 SE 11 15 6 8 1016.0 1010.6 59.2
04/05:44am 21.3 22.5 19.8 91 1.0 ESE 13 15 7 8 1016.1 1010.7 59.2
04/05:30am 21.3 22.1 19.8 91 1.0 SE 15 19 8 10 1016.0 1010.6 59.2
04/05:00am 21.1 22.3 19.9 93 0.8 ESE 13 17 7 9 1015.8 1010.4 59.2
04/04:53am 21.1 21.5 19.9 93 0.8 ESE 17 22 9 12 1015.7 1010.3 59.0
04/04:30am 21.2 21.0 19.8 92 0.9 ESE 20 26 11 14 1015.8 1010.4 58.0
04/04:19am 21.2 21.3 20.0 93 0.8 SE 19 26 10 14 1015.8 1010.4 57.6
04/04:00am 21.3 21.3 19.8 91 1.0 ESE 19 30 10 16 1015.8 1010.4 56.8
04/03:57am 21.2 21.2 19.8 92 0.9 ESE 19 30 10 16 1015.7 1010.3 56.6
04/03:30am 21.4 19.8 20.0 92 0.9 E 28 39 15 21 1014.9 1009.5 54.6
04/03:08am 21.7 22.0 20.3 92 0.9 ESE 19 35 10 19 1014.5 1009.1 53.4
04/03:00am 21.6 22.9 20.8 95 0.5 ESE 15 20 8 11 1014.5 1009.1 53.2
04/02:30am 21.0 22.3 20.2 95 0.5 ESE 13 19 7 10 1014.5 1009.1 39.6
04/02:27am 21.0 22.0 20.2 95 0.5 SE 15 20 8 11 1014.5 1009.1 36.8
04/02:03am 20.7 21.1 19.9 95 0.5 SSE 17 24 9 13 1014.2 1008.7 34.0
04/02:00am 20.7 21.1 19.9 95 0.5 SSE 17 24 9 13 1014.2 1008.7 34.0
04/01:30am 20.1 20.8 18.9 93 0.8 E 13 20 7 11 1014.3 1008.9 26.0
04/01:28am 20.4 21.4 19.4 94 0.7 E 13 20 7 11 1014.3 1008.9 24.0
04/01:00am 20.3 22.3 19.1 93 0.8 S 7 11 4 6 1014.1 1008.6 21.8
04/12:30am 20.3 22.4 19.3 94 0.6 ESE 7 9 4 5 1014.1 1008.6 20.8
04/12:11am 20.4 22.1 19.4 94 0.7 ESE 9 15 5 8 1014.6 1009.2 20.2
04/12:02am 20.0 23.0 19.3 96 0.5 NE 2 7 1 4 1014.8 1009.4 19.8
04/12:00am 20.0 22.6 19.3 96 0.5 NE 4 11 2 6 1014.8 1009.4 19.6
 
Date/Time
WST
Temp
°C
App
Temp
°C
Dew
Point
Rel
Hum
%
Delta-T
°C
Wind Press
QNH
hPa
Press
MSL
hPa
Rain
since 9 am
mm
Dir
 
Spd
km/h
Gust
km/h
Spd
kts
Gust
kts
03/11:36pm 21.8 22.0 20.1 90 1.1 N 19 33 10 18 1015.7 1010.3 8.4
03/11:30pm 22.6 24.8 21.8 95 0.5 NNW 13 20 7 11 1015.5 1010.0 7.0
03/11:03pm 22.9 24.5 21.5 92 0.9 N 15 19 8 10 1015.2 1009.7 2.4
03/11:00pm 23.1 24.7 21.5 91 1.1 NNW 15 20 8 11 1015.2 1009.7 1.6
03/10:30pm 25.0 27.7 21.3 80 2.5 NW 9 15 5 8 1014.4 1009.0 0.0
03/10:00pm 25.4 27.0 21.5 79 2.7 E 15 22 8 12 1014.2 1008.7 0.0
03/09:30pm 26.2 26.6 21.0 73 3.5 E 20 33 11 18 1014.2 1008.7 0.0
03/09:00pm 26.6 28.0 21.1 72 3.7 ENE 15 22 8 12 1014.4 1009.0 0.0
03/08:30pm 26.5 29.2 22.1 77 3.0 ESE 11 15 6 8 1014.0 1008.5 0.0
03/08:00pm 26.8 29.7 21.8 74 3.4 E 9 11 5 6 1013.7 1008.2 0.0
03/07:30pm 26.9 28.9 21.6 72 3.6 E 13 17 7 9 1013.2 1007.8 0.0
03/07:00pm 27.3 29.3 21.6 71 3.9 ESE 13 17 7 9 1012.7 1007.2 0.0
03/06:30pm 27.7 29.4 21.0 67 4.6 E 13 15 7 8 1012.1 1006.6 0.0
03/06:00pm 28.1 29.9 20.4 63 5.2 E 11 17 6 9 1011.6 1006.2 0.0
03/05:30pm 28.0 28.4 20.6 64 5.0 E 19 26 10 14 1011.1 1005.6 0.0
03/05:00pm 28.3 28.8 21.1 65 4.9 ENE 20 28 11 15 1011.0 1005.5 0.0
03/04:30pm 27.7 28.5 21.7 70 4.1 NE 20 26 11 14 1011.2 1005.7 0.0
03/04:00pm 28.4 30.0 21.4 66 4.8 NNE 15 20 8 11 1011.1 1005.6 0.0
03/03:30pm 28.0 29.1 21.3 67 4.6 NNE 17 24 9 13 1011.1 1005.6 0.0
03/03:00pm 31.5 30.7 19.2 48 8.3 E 22 35 12 19 1010.7 1005.2 0.0
03/02:30pm 32.1 31.0 18.7 45 8.9 NE 22 32 12 17 1011.1 1005.6 0.0
03/02:00pm 32.6 32.3 19.1 44 9.1 E 19 33 10 18 1011.2 1005.7 0.0
03/01:30pm 31.3 31.3 19.0 48 8.2 ENE 17 28 9 15 1011.9 1006.5 0.0
03/01:00pm 31.1 30.7 19.4 49 7.9 ENE 20 33 11 18 1012.7 1007.2 0.0
03/12:30pm 30.5 30.1 18.9 50 7.7 ENE 19 33 10 18 1013.3 1007.9 0.0
03/12:00pm 29.3 29.5 20.2 58 6.1 E 19 28 10 15 1013.7 1008.2 0.0
03/11:30am 29.9 30.3 20.7 57 6.3 ENE 19 32 10 17 1013.8 1008.3 0.0
03/11:00am 29.0 29.0 20.2 59 5.9 ENE 20 35 11 19 1014.0 1008.5 0.0
03/10:30am 28.4 28.7 20.7 63 5.2 E 20 30 11 16 1014.2 1008.7 0.0
03/10:00am 27.3 28.4 20.4 66 4.6 NE 15 24 8 13 1014.2 1008.7 0.0
03/09:30am 26.6 26.7 20.4 69 4.2 NNE 20 30 11 16 1014.1 1008.6 0.0
03/09:29am 26.6 26.7 20.4 69 4.2 NNE 20 30 11 16 1014.1 1008.6 0.0
03/09:13am 26.2 26.4 20.1 69 4.1 NNE 19 28 10 15 1014.1 1008.6 0.0
03/09:00am 26.2 26.5 20.3 70 4.0 NNE 19 26 10 14 1014.1 1008.6 7.0
03/08:30am 25.9 26.8 20.9 74 3.4 ENE 17 22 9 12 1013.9 1008.4 7.0
03/08:00am 24.3 24.0 19.6 75 3.1 ENE 20 26 11 14 1013.7 1008.2 7.0
03/07:30am 23.3 23.6 19.7 80 2.4 ENE 17 24 9 13 1013.8 1008.3 7.0
03/07:00am 22.8 24.0 20.0 84 1.9 ENE 13 17 7 9 1013.5 1008.1 7.0
03/06:30am 22.5 24.1 19.9 85 1.7 E 11 17 6 9 1013.5 1008.1 7.0
03/06:00am 22.5 24.1 20.0 86 1.7 ENE 11 19 6 10 1013.0 1007.6 7.0
03/05:59am 22.5 24.1 20.0 86 1.7 ENE 11 19 6 10 1013.0 1007.6 7.0
03/05:30am 22.4 24.5 20.1 87 1.5 E 9 15 5 8 1012.5 1007.0 7.0
03/05:19am 22.4 24.4 19.9 86 1.6 ENE 9 15 5 8 1012.4 1006.9 7.0
03/05:00am 22.4 24.4 19.9 86 1.7 ENE 9 15 5 8 1012.1 1006.6 7.0
03/04:30am 22.4 24.9 19.8 85 1.7 E 6 9 3 5 1011.8 1006.4 7.0
03/04:00am 22.3 23.8 19.8 86 1.6 E 11 15 6 8 1011.5 1006.0 6.8
03/03:30am 22.4 24.3 19.8 85 1.7 ESE 9 13 5 7 1011.6 1006.2 6.8
03/03:00am 22.4 24.3 19.8 85 1.7 E 9 13 5 7 1011.7 1006.3 6.8
03/02:30am 22.8 24.0 19.8 83 2.0 E 13 17 7 9 1011.7 1006.3 6.8
03/02:00am 22.8 25.3 19.8 83 2.0 ESE 6 7 3 4 1011.8 1006.4 6.8
03/01:30am 22.8 25.0 20.3 86 1.7 ENE 9 13 5 7 1011.8 1006.4 6.8
03/01:00am 22.9 25.0 20.2 85 1.8 E 9 15 5 8 1012.1 1006.6 6.8
03/12:30am 22.9 22.8 19.9 83 2.0 ESE 20 28 11 15 1012.3 1006.8 6.8
03/12:16am 23.0 22.0 19.6 81 2.2 ESE 24 33 13 18 1012.5 1007.0 6.8
03/12:00am 23.3 23.0 19.5 79 2.5 E 20 35 11 19 1012.5 1007.0 6.8
 
Date/Time
WST
Temp
°C
App
Temp
°C
Dew
Point
Rel
Hum
%
Delta-T
°C
Wind Press
QNH
hPa
Press
MSL
hPa
Rain
since 9 am
mm
Dir
 
Spd
km/h
Gust
km/h
Spd
kts
Gust
kts
02/11:46pm 22.8 23.4 19.4 81 2.2 ESE 15 20 8 11 1012.6 1007.1 6.8
02/11:30pm 22.8 24.1 19.4 81 2.2 SE 11 15 6 8 1012.5 1007.0 6.8
02/11:00pm 23.4 25.0 20.0 81 2.3 ESE 11 17 6 9 1012.4 1006.9 6.8
02/10:30pm 23.8 24.3 20.1 80 2.5 E 17 20 9 11 1012.2 1006.7 6.8
02/10:00pm 23.5 25.1 20.8 85 1.8 SSE 13 17 7 9 1012.3 1006.8 6.8
02/09:30pm 24.0 26.7 20.7 82 2.2 S 7 13 4 7 1011.7 1006.3 6.8
02/09:03pm 24.2 22.8 21.1 83 2.1 E 30 37 16 20 1010.9 1005.4 6.8
02/09:00pm 24.3 22.4 21.0 82 2.2 ESE 32 37 17 20 1010.7 1005.2 6.8
02/08:53pm 24.0 22.9 21.1 84 2.0 ESE 28 37 15 20 1010.6 1005.1 6.8
02/08:42pm 23.9 26.8 21.0 84 2.0 ESE 7 17 4 9 1011.4 1005.9 4.8
02/08:30pm 24.2 25.6 21.1 83 2.1 E 15 20 8 11 1011.2 1005.7 2.8
02/08:00pm 23.7 26.7 22.0 90 1.2 S 9 11 5 6 1011.1 1005.6 2.8
02/07:30pm 24.4 26.1 20.9 81 2.4 E 13 19 7 10 1010.3 1004.9 2.0
02/07:00pm 24.1 26.4 20.6 81 2.3 NW 9 17 5 9 1010.2 1004.7 1.4
02/06:30pm 25.7 28.2 21.1 76 3.1 SSE 9 15 5 8 1008.9 1003.5 1.0
02/06:00pm 26.7 28.0 21.7 74 3.4 SSE 17 24 9 13 1008.5 1003.0 0.8
02/05:30pm 27.0 27.8 20.6 68 4.3 SSE 17 24 9 13 1008.4 1002.9 0.4
02/05:00pm 28.6 28.6 20.1 60 5.7 S 20 33 11 18 1007.8 1002.3 0.4
02/04:30pm 31.1 31.6 20.1 52 7.5 NE 17 22 9 12 1007.3 1001.8 0.2
02/04:00pm 32.1 31.9 17.6 42 9.5 NNE 15 20 8 11 1007.3 1001.8 0.2
02/03:30pm 32.7 31.4 17.3 39 10.1 N 20 30 11 16 1007.2 1001.7 0.2
02/03:00pm 34.0 32.5 16.4 35 11.5 NNW 19 30 10 16 1007.6 1002.0 0.2
02/02:30pm 33.2 32.4 17.0 38 10.6 NNW 17 32 9 17 1008.0 1002.5 0.2
02/02:00pm 33.6 33.4 17.7 38 10.5 NNW 15 26 8 14 1008.6 1003.1 0.2
02/01:30pm 32.3 32.5 17.7 41 9.6 N 13 20 7 11 1008.9 1003.5 0.2
02/01:00pm 32.2 31.3 16.9 40 10.0 NNW 17 26 9 14 1009.3 1003.8 0.2
02/12:30pm 32.3 32.5 17.7 41 9.6 N 13 20 7 11 1009.7 1004.2 0.2
02/12:00pm 31.3 32.0 17.9 44 8.8 NNE 11 20 6 11 1010.2 1004.7 0.2
02/11:30am 30.3 30.8 18.4 49 7.9 NNW 13 20 7 11 1010.8 1005.3 0.2
02/11:00am 29.6 31.0 18.7 52 7.2 W 9 13 5 7 1011.2 1005.7 0.2
02/10:30am 29.1 31.0 19.7 57 6.3 N 9 15 5 8 1011.7 1006.3 0.2
02/10:00am 28.4 30.0 19.1 57 6.2 WNW 9 13 5 7 1012.1 1006.6 0.2
02/09:30am 27.4 29.0 19.2 61 5.4 WNW 9 15 5 8 1012.3 1006.8 0.0
02/09:00am 26.8 28.5 20.2 67 4.4 WSW 11 17 6 9 1012.1 1006.6 0.6
02/08:30am 25.8 27.0 20.6 73 3.5 SW 15 19 8 10 1011.6 1006.2 0.6
02/08:00am 25.2 27.2 20.7 76 3.0 SW 11 17 6 9 1011.5 1006.0 0.6
02/07:30am 24.6 25.6 20.3 77 2.9 WSW 15 19 8 10 1011.3 1005.8 0.6
02/07:00am 24.3 27.5 20.4 79 2.6 WSW 4 7 2 4 1011.3 1005.8 0.6
02/06:30am 23.1 27.3 21.0 88 1.4 CALM 0 0 0 0 1011.1 1005.6 0.6
02/06:00am 23.1 25.9 20.8 87 1.5 WSW 7 9 4 5 1010.9 1005.4 0.6
02/05:30am 23.4 26.4 20.9 86 1.7 WSW 6 7 3 4 1010.6 1005.1 0.6
02/05:00am 23.6 25.9 20.7 84 1.9 SW 9 17 5 9 1010.2 1004.7 0.6
02/04:30am 23.3 26.3 20.8 86 1.7 NNW 6 7 3 4 1010.1 1004.6 0.6
02/04:00am 23.6 26.4 20.5 83 2.1 NNW 6 11 3 6 1010.0 1004.5 0.6
02/03:30am 23.9 28.0 20.8 83 2.1 CALM 0 7 0 4 1009.9 1004.4 0.6
02/03:00am 23.7 26.5 21.6 88 1.4 N 9 11 5 6 1009.7 1004.2 0.6
02/02:30am 23.9 27.9 22.0 89 1.3 N 4 7 2 4 1010.0 1004.5 0.6
02/02:00am 24.0 27.3 21.9 88 1.4 N 7 9 4 5 1010.2 1004.7 0.6
02/01:30am 24.5 28.7 21.8 85 1.8 N 2 7 1 4 1010.4 1005.0 0.6
02/01:00am 24.6 27.8 21.7 84 2.0 N 7 9 4 5 1010.6 1005.1 0.6

Other Formats:

Comma delimited format used in spreadsheet applications
http://www.bom.gov.au/fwo/IDW60801/IDW60801.99312.axf

JavaScript Object Notation format (JSON) in row-major order
http://www.bom.gov.au/fwo/IDW60801/IDW60801.99312.json